createdAt,value
2018-11-21T00:00:44.113Z,1.50
2018-11-21T00:03:13.078Z,1.40
2018-11-21T00:05:42.006Z,1.40
2018-11-21T00:08:11.973Z,1.30
2018-11-21T00:10:41.028Z,1.30
2018-11-21T00:13:09.896Z,1.40
2018-11-21T00:15:39.958Z,1.30
2018-11-21T00:18:09.190Z,1.30
2018-11-21T00:20:38.050Z,1.30
2018-11-21T00:23:06.969Z,1.30
2018-11-21T00:25:36.094Z,1.30
2018-11-21T00:28:05.187Z,1.30
2018-11-21T00:30:34.110Z,1.30
2018-11-21T00:33:02.953Z,1.20
2018-11-21T00:35:31.809Z,1.10
2018-11-21T00:38:00.608Z,1.20
2018-11-21T00:40:29.720Z,1.20
2018-11-21T00:42:58.604Z,1.20
2018-11-21T00:45:27.714Z,1.20
2018-11-21T00:47:56.547Z,1.20
2018-11-21T00:50:25.413Z,1.10
2018-11-21T00:52:54.335Z,1.10
2018-11-21T00:55:23.225Z,1.10
2018-11-21T00:57:52.076Z,1.00
2018-11-21T01:00:21.190Z,1.00
2018-11-21T01:02:50.161Z,1.00
2018-11-21T01:05:19.162Z,1.00
2018-11-21T01:07:47.907Z,1.00
2018-11-21T01:10:16.817Z,1.10
2018-11-21T01:12:45.674Z,1.10
2018-11-21T01:15:14.475Z,1.00
2018-11-21T01:17:44.480Z,1.00
2018-11-21T01:20:13.317Z,1.00
2018-11-21T01:22:42.142Z,0.90
2018-11-21T01:25:11.217Z,0.90
2018-11-21T01:27:40.177Z,0.90
2018-11-21T01:30:09.181Z,0.90
2018-11-21T01:32:38.523Z,0.80
2018-11-21T01:35:07.859Z,0.80
2018-11-21T01:37:36.674Z,0.90
2018-11-21T01:40:07.404Z,0.90
2018-11-21T01:42:36.245Z,0.90
2018-11-21T01:45:05.215Z,0.90
2018-11-21T01:47:34.033Z,0.90
2018-11-21T01:50:02.868Z,0.90
2018-11-21T01:52:31.762Z,0.90
2018-11-21T01:55:00.724Z,0.90
2018-11-21T01:57:29.604Z,0.90
2018-11-21T01:59:58.814Z,0.90
2018-11-21T02:02:27.793Z,0.80
2018-11-21T02:04:56.611Z,0.80
2018-11-21T02:07:25.489Z,0.80
2018-11-21T02:09:54.407Z,0.90
2018-11-21T02:12:23.434Z,0.90
2018-11-21T02:14:52.547Z,0.90
2018-11-21T02:17:21.423Z,0.90
2018-11-21T02:19:50.295Z,0.80
2018-11-21T02:22:19.170Z,0.80
2018-11-21T02:24:48.126Z,0.90
2018-11-21T02:27:17.039Z,0.80
2018-11-21T02:29:46.296Z,0.90
2018-11-21T02:32:15.147Z,0.90
2018-11-21T02:34:44.029Z,0.90
2018-11-21T02:37:12.886Z,1.00
2018-11-21T02:39:41.766Z,1.00
2018-11-21T02:42:10.679Z,1.10
2018-11-21T02:44:39.537Z,1.10
2018-11-21T02:47:08.389Z,1.10
2018-11-21T02:49:37.246Z,1.10
2018-11-21T02:52:06.829Z,1.20
2018-11-21T02:54:35.859Z,1.10
2018-11-21T02:57:18.398Z,1.10
2018-11-21T02:59:47.726Z,1.10
2018-11-21T03:02:17.323Z,1.10
2018-11-21T03:04:46.162Z,1.10
2018-11-21T03:07:15.085Z,1.10
2018-11-21T03:09:43.883Z,1.10
2018-11-21T03:12:13.102Z,1.10
2018-11-21T03:14:41.950Z,1.10
2018-11-21T03:17:10.931Z,1.10
2018-11-21T03:19:39.849Z,1.00
2018-11-21T03:22:09.339Z,1.00
2018-11-21T03:24:38.586Z,1.00
2018-11-21T03:27:07.494Z,1.00
2018-11-21T03:29:36.499Z,0.90
2018-11-21T03:32:05.471Z,0.90
2018-11-21T03:34:34.401Z,0.90
2018-11-21T03:37:03.402Z,0.90
2018-11-21T03:39:32.314Z,0.90
2018-11-21T03:42:01.227Z,0.90
2018-11-21T03:44:30.118Z,0.90
2018-11-21T03:46:59.288Z,0.90
2018-11-21T03:49:28.132Z,0.90
2018-11-21T03:51:57.540Z,0.90
2018-11-21T03:54:26.350Z,0.90
2018-11-21T03:56:55.367Z,0.90
2018-11-21T03:59:24.208Z,1.00
2018-11-21T04:01:53.043Z,1.00
2018-11-21T04:04:21.997Z,1.00
2018-11-21T04:06:50.869Z,1.00
2018-11-21T04:09:19.771Z,1.00
2018-11-21T04:11:48.818Z,1.00
2018-11-21T04:14:17.632Z,1.00
2018-11-21T04:16:46.453Z,1.00
2018-11-21T04:19:15.278Z,1.00
2018-11-21T04:21:44.190Z,1.00
2018-11-21T04:24:13.102Z,0.90
2018-11-21T04:26:41.906Z,0.90
2018-11-21T04:29:10.749Z,0.90
2018-11-21T04:31:40.037Z,0.90
2018-11-21T04:34:08.883Z,0.90
2018-11-21T04:36:37.889Z,0.90
2018-11-21T04:39:10.365Z,0.90
2018-11-21T04:41:39.320Z,0.90
2018-11-21T04:44:08.307Z,0.90
2018-11-21T04:46:37.524Z,0.80
2018-11-21T04:49:06.489Z,0.80
2018-11-21T04:51:35.304Z,0.80
2018-11-21T04:54:04.624Z,0.80
2018-11-21T04:56:33.559Z,0.80
2018-11-21T04:59:02.555Z,0.90
2018-11-21T05:01:31.341Z,0.80
2018-11-21T05:04:00.821Z,0.90
2018-11-21T05:06:29.659Z,0.90
2018-11-21T05:08:58.514Z,0.80
2018-11-21T05:11:27.727Z,0.80
2018-11-21T05:13:56.566Z,0.80
2018-11-21T05:16:25.715Z,0.90
2018-11-21T05:18:54.547Z,0.90
2018-11-21T05:21:23.891Z,0.90
2018-11-21T05:23:52.754Z,1.00
2018-11-21T05:26:21.899Z,1.00
2018-11-21T05:28:50.838Z,0.90
2018-11-21T05:31:20.658Z,0.90
2018-11-21T05:33:49.460Z,0.90
2018-11-21T05:36:18.416Z,0.90
2018-11-21T05:38:47.279Z,0.90
2018-11-21T05:41:16.229Z,0.90
2018-11-21T05:43:45.459Z,0.90
2018-11-21T05:46:14.385Z,0.80
2018-11-21T05:48:43.222Z,0.80
2018-11-21T05:51:12.195Z,0.80
2018-11-21T05:53:41.250Z,1.20
2018-11-21T05:56:10.392Z,0.70
2018-11-21T05:58:39.306Z,0.70
2018-11-21T06:01:08.174Z,0.70
2018-11-21T06:03:37.239Z,0.70
2018-11-21T06:06:09.892Z,0.70
2018-11-21T06:08:35.036Z,0.80
2018-11-21T06:11:03.854Z,0.80
2018-11-21T06:13:32.757Z,0.90
2018-11-21T06:16:01.594Z,0.90
2018-11-21T06:18:30.461Z,0.90
2018-11-21T06:21:00.276Z,0.90
2018-11-21T06:23:29.138Z,0.80
2018-11-21T06:25:57.959Z,0.90
2018-11-21T06:28:26.942Z,1.00
2018-11-21T06:30:55.999Z,0.90
2018-11-21T06:33:24.973Z,0.80
2018-11-21T06:35:53.909Z,0.80
2018-11-21T06:38:22.863Z,0.80
2018-11-21T06:40:51.708Z,0.80
2018-11-21T06:43:20.849Z,0.80
2018-11-21T06:45:50.044Z,0.80
2018-11-21T06:48:18.902Z,0.90
2018-11-21T06:50:47.759Z,0.90
2018-11-21T06:53:16.681Z,0.90
2018-11-21T06:55:45.674Z,0.90
2018-11-21T06:58:14.613Z,0.80
2018-11-21T07:00:43.467Z,0.80
2018-11-21T07:03:12.344Z,0.80
2018-11-21T07:05:41.200Z,0.80
2018-11-21T07:08:29.424Z,0.80
2018-11-21T07:10:58.259Z,0.80
2018-11-21T07:13:27.206Z,0.90
2018-11-21T07:15:56.127Z,1.00
2018-11-21T07:18:24.982Z,1.20
2018-11-21T07:20:54.602Z,1.30
2018-11-21T07:23:23.519Z,1.50
2018-11-21T07:25:52.611Z,1.70
2018-11-21T07:28:21.805Z,1.90
2018-11-21T07:30:50.693Z,2.10
2018-11-21T07:33:20.646Z,2.30
2018-11-21T07:35:49.511Z,2.40
2018-11-21T07:38:18.438Z,2.70
2018-11-21T07:40:47.332Z,3.00
2018-11-21T07:43:16.241Z,3.00
2018-11-21T07:45:45.055Z,3.00
2018-11-21T07:48:20.357Z,3.00
2018-11-21T07:50:43.768Z,3.00
2018-11-21T07:53:12.615Z,3.30
2018-11-21T07:55:41.580Z,3.40
2018-11-21T07:58:15.697Z,3.80
2018-11-21T08:01:08.059Z,4.50
2018-11-21T08:03:50.005Z,5.20
2018-11-21T08:06:44.126Z,5.70
2018-11-21T08:09:24.067Z,5.70
2018-11-21T08:12:11.067Z,5.90
2018-11-21T08:15:02.228Z,6.30
2018-11-21T08:17:45.679Z,7.00
2018-11-21T08:20:46.152Z,7.00
2018-11-21T08:23:43.227Z,7.20
2018-11-21T08:26:40.779Z,7.40
2018-11-21T08:29:09.729Z,7.70
2018-11-21T08:31:38.709Z,8.40
2018-11-21T08:34:07.644Z,9.10
2018-11-21T08:36:36.808Z,8.90
2018-11-21T08:39:08.103Z,9.50
2018-11-21T08:41:37.019Z,9.50
2018-11-21T08:44:07.459Z,9.70
2018-11-21T08:46:36.312Z,10.00
2018-11-21T08:49:05.388Z,10.40
2018-11-21T08:51:34.348Z,10.20
2018-11-21T08:54:03.154Z,9.80
2018-11-21T08:56:32.541Z,9.80
2018-11-21T08:59:00.979Z,10.30
2018-11-21T09:01:30.042Z,10.40
2018-11-21T09:03:59.770Z,9.80
2018-11-21T09:06:28.644Z,9.30
2018-11-21T09:08:57.619Z,9.60
2018-11-21T09:11:26.486Z,9.20
2018-11-21T09:13:55.355Z,8.30
2018-11-21T09:16:24.226Z,8.80
2018-11-21T09:18:53.039Z,9.70
2018-11-21T09:21:21.892Z,10.40
2018-11-21T09:23:50.762Z,10.50
2018-11-21T09:26:19.599Z,10.40
2018-11-21T09:28:48.400Z,10.70
2018-11-21T09:31:17.416Z,10.00
2018-11-21T09:33:46.615Z,9.50
2018-11-21T09:36:15.443Z,9.70
2018-11-21T09:38:44.308Z,9.90
2018-11-21T09:41:13.203Z,9.60
2018-11-21T09:43:42.075Z,9.30
2018-11-21T09:46:10.980Z,9.40
2018-11-21T09:48:39.815Z,8.60
2018-11-21T09:51:08.691Z,8.80
2018-11-21T09:53:37.998Z,8.80
2018-11-21T09:56:06.892Z,8.20
2018-11-21T09:58:35.815Z,8.00
2018-11-21T10:01:41.013Z,8.00
2018-11-21T10:04:10.198Z,7.90
2018-11-21T10:06:41.477Z,7.50
2018-11-21T10:09:32.367Z,7.40
2018-11-21T10:12:01.193Z,7.50
2018-11-21T10:14:30.087Z,7.10
2018-11-21T10:16:59.116Z,7.00
2018-11-21T10:19:28.342Z,7.20
2018-11-21T10:21:57.482Z,7.20
2018-11-21T10:24:26.368Z,7.10
2018-11-21T10:26:55.178Z,7.40
2018-11-21T10:29:24.235Z,7.50
2018-11-21T10:31:53.252Z,7.10
2018-11-21T10:34:22.514Z,6.80
2018-11-21T10:36:51.435Z,6.50
2018-11-21T10:39:20.396Z,6.40
2018-11-21T10:41:49.578Z,6.30
2018-11-21T10:44:18.620Z,6.40
2018-11-21T10:46:48.527Z,6.40
2018-11-21T10:49:17.372Z,6.40
2018-11-21T10:51:46.241Z,6.50
2018-11-21T10:54:15.218Z,6.80
2018-11-21T10:56:44.892Z,6.60
2018-11-21T10:59:13.885Z,6.60
2018-11-21T11:02:17.251Z,6.50
2018-11-21T11:05:08.175Z,6.10
2018-11-21T11:08:06.032Z,6.00
2018-11-21T11:10:56.885Z,5.90
2018-11-21T11:13:36.937Z,5.80
2018-11-21T11:16:21.668Z,5.90
2018-11-21T11:19:00.434Z,6.00
2018-11-21T11:22:07.007Z,6.00
2018-11-21T11:25:04.126Z,6.00
2018-11-21T11:28:03.299Z,6.10
2018-11-21T11:30:45.491Z,6.20
2018-11-21T11:33:28.229Z,6.50
2018-11-21T11:36:16.309Z,6.60
2018-11-21T11:39:19.434Z,6.60
2018-11-21T11:42:06.173Z,6.50
2018-11-21T11:45:03.290Z,6.70
2018-11-21T11:48:09.804Z,6.90
2018-11-21T11:50:56.690Z,7.20
2018-11-21T11:53:43.549Z,7.30
2018-11-21T11:56:31.570Z,7.20
2018-11-21T11:59:20.160Z,7.00
2018-11-21T12:02:06.885Z,7.00
2018-11-21T12:04:49.202Z,6.90
2018-11-21T12:07:40.290Z,6.70
2018-11-21T12:10:43.334Z,6.60
2018-11-21T12:13:46.544Z,6.50
2018-11-21T12:16:33.137Z,6.60
2018-11-21T12:19:15.269Z,6.90
2018-11-21T12:22:02.256Z,7.10
2018-11-21T12:24:49.022Z,6.80
2018-11-21T12:27:55.622Z,6.70
2018-11-21T12:30:41.935Z,6.90
2018-11-21T12:33:25.046Z,7.00
2018-11-21T12:36:08.747Z,6.90
2018-11-21T12:38:47.524Z,7.00
2018-11-21T12:41:38.931Z,6.80
2018-11-21T12:44:29.913Z,6.60
2018-11-21T12:47:18.035Z,6.30
2018-11-21T12:49:59.123Z,6.30
2018-11-21T12:52:52.602Z,6.40
2018-11-21T12:55:43.596Z,6.70
2018-11-21T12:58:30.159Z,6.80
2018-11-21T13:01:30.399Z,6.60
2018-11-21T13:04:16.933Z,6.50
2018-11-21T13:07:04.987Z,6.30
2018-11-21T13:09:56.705Z,6.30
2018-11-21T13:12:40.008Z,6.20
2018-11-21T13:15:29.990Z,6.10
2018-11-21T13:18:26.888Z,6.10
2018-11-21T13:21:14.798Z,6.10
2018-11-21T13:23:50.337Z,6.00
2018-11-21T13:26:37.206Z,5.90
2018-11-21T13:29:23.792Z,5.90
2018-11-21T13:32:14.593Z,6.00
2018-11-21T13:34:53.052Z,5.90
2018-11-21T13:37:37.850Z,5.80
2018-11-21T13:40:20.459Z,5.70
2018-11-21T13:43:07.457Z,5.70
2018-11-21T13:45:54.236Z,5.80
2018-11-21T13:48:47.255Z,5.80
2018-11-21T13:51:47.043Z,5.80
2018-11-21T13:54:22.262Z,5.80
2018-11-21T13:56:51.258Z,5.80
2018-11-21T13:59:20.147Z,5.60
2018-11-21T14:01:48.983Z,5.50
2018-11-21T14:04:17.970Z,5.40
2018-11-21T14:06:47.409Z,5.20
2018-11-21T14:09:20.175Z,5.20
2018-11-21T14:11:50.173Z,5.10
2018-11-21T14:14:19.557Z,5.10
2018-11-21T14:16:48.764Z,5.00
2018-11-21T14:19:17.570Z,4.90
2018-11-21T14:21:46.458Z,4.90
2018-11-21T14:24:15.366Z,4.80
2018-11-21T14:26:44.229Z,4.80
2018-11-21T14:29:13.182Z,4.70
2018-11-21T14:31:42.064Z,4.60
2018-11-21T14:34:10.855Z,4.60
2018-11-21T14:36:39.699Z,4.50
2018-11-21T14:39:10.592Z,4.50
2018-11-21T14:41:40.295Z,4.40
2018-11-21T14:44:09.452Z,4.30
2018-11-21T14:46:38.846Z,4.30
2018-11-21T14:49:08.239Z,4.30
2018-11-21T14:51:37.373Z,4.20
2018-11-21T14:54:06.728Z,4.20
2018-11-21T14:56:35.707Z,4.10
2018-11-21T14:59:05.326Z,4.10
2018-11-21T15:01:34.220Z,4.00
2018-11-21T15:04:03.079Z,4.00
2018-11-21T15:06:31.932Z,4.00
2018-11-21T15:09:00.898Z,4.00
2018-11-21T15:11:30.128Z,3.90
2018-11-21T15:13:58.934Z,3.90
2018-11-21T15:16:27.893Z,3.90
2018-11-21T15:18:56.799Z,3.80
2018-11-21T15:21:25.676Z,3.80
2018-11-21T15:23:54.657Z,3.80
2018-11-21T15:26:23.506Z,3.70
2018-11-21T15:28:52.291Z,3.70
2018-11-21T15:31:21.226Z,3.60
2018-11-21T15:33:50.057Z,3.50
2018-11-21T15:36:18.945Z,3.50
2018-11-21T15:38:47.996Z,3.50
2018-11-21T15:41:17.189Z,3.40
2018-11-21T15:43:46.121Z,3.40
2018-11-21T15:46:15.283Z,3.40
2018-11-21T15:48:44.253Z,3.30
2018-11-21T15:51:13.099Z,3.30
2018-11-21T15:53:42.148Z,3.30
2018-11-21T15:56:11.009Z,3.20
2018-11-21T15:58:39.974Z,3.20
2018-11-21T16:01:08.891Z,3.20
2018-11-21T16:03:37.793Z,3.20
2018-11-21T16:06:06.670Z,3.20
2018-11-21T16:08:35.540Z,3.20
2018-11-21T16:11:04.549Z,3.20
2018-11-21T16:13:33.287Z,3.20
2018-11-21T16:16:02.234Z,3.10
2018-11-21T16:18:31.107Z,3.00
2018-11-21T16:20:59.957Z,3.00
2018-11-21T16:23:28.777Z,2.90
2018-11-21T16:25:57.674Z,2.90
2018-11-21T16:28:26.506Z,2.80
2018-11-21T16:30:56.409Z,2.80
2018-11-21T16:33:25.268Z,2.80
2018-11-21T16:35:54.349Z,2.80
2018-11-21T16:38:23.227Z,2.70
2018-11-21T16:40:52.055Z,2.70
2018-11-21T16:43:21.024Z,2.70
2018-11-21T16:45:51.627Z,2.60
2018-11-21T16:48:20.746Z,2.70
2018-11-21T16:50:50.924Z,2.70
2018-11-21T16:53:19.735Z,2.80
2018-11-21T16:55:48.579Z,2.70
2018-11-21T16:58:18.360Z,2.70
2018-11-21T17:00:47.220Z,2.70
2018-11-21T17:03:16.064Z,2.70
2018-11-21T17:05:44.969Z,2.70
2018-11-21T17:08:13.883Z,2.80
2018-11-21T17:10:42.896Z,2.90
2018-11-21T17:13:11.785Z,2.90
2018-11-21T17:15:40.702Z,2.90
2018-11-21T17:18:09.702Z,3.00
2018-11-21T17:20:41.593Z,3.00
2018-11-21T17:23:10.368Z,3.10
2018-11-21T17:25:40.192Z,3.10
2018-11-21T17:28:09.237Z,3.10
2018-11-21T17:30:37.998Z,3.20
2018-11-21T17:33:06.900Z,3.20
2018-11-21T17:35:35.848Z,3.20
2018-11-21T17:38:04.763Z,3.20
2018-11-21T17:40:35.391Z,3.20
2018-11-21T17:43:04.187Z,3.30
2018-11-21T17:45:33.080Z,3.30
2018-11-21T17:48:02.371Z,3.30
2018-11-21T17:50:31.233Z,3.40
2018-11-21T17:53:01.668Z,3.40
2018-11-21T17:55:31.495Z,3.50
2018-11-21T17:58:00.473Z,3.50
2018-11-21T18:00:30.479Z,3.50
2018-11-21T18:02:59.426Z,3.50
2018-11-21T18:05:30.169Z,3.60
2018-11-21T18:07:59.070Z,3.60
2018-11-21T18:10:32.837Z,3.60
2018-11-21T18:13:01.677Z,3.60
2018-11-21T18:15:30.620Z,3.60
2018-11-21T18:17:59.538Z,3.60
2018-11-21T18:20:29.231Z,3.60
2018-11-21T18:22:58.134Z,3.70
2018-11-21T18:25:28.996Z,3.70
2018-11-21T18:27:58.015Z,3.70
2018-11-21T18:30:27.194Z,3.70
2018-11-21T18:32:56.200Z,3.70
2018-11-21T18:35:25.309Z,3.70
2018-11-21T18:37:54.174Z,3.70
2018-11-21T18:40:26.144Z,3.80
2018-11-21T18:42:55.065Z,3.70
2018-11-21T18:45:33.393Z,3.80
2018-11-21T18:48:02.327Z,3.80
2018-11-21T18:50:31.434Z,3.80
2018-11-21T18:53:02.404Z,3.80
2018-11-21T18:55:36.767Z,3.90
2018-11-21T18:58:36.170Z,3.90
2018-11-21T19:01:06.226Z,3.80
2018-11-21T19:03:35.368Z,3.80
2018-11-21T19:06:04.506Z,3.90
2018-11-21T19:08:33.763Z,3.90
2018-11-21T19:11:02.955Z,3.90
2018-11-21T19:13:32.499Z,3.90
2018-11-21T19:16:01.651Z,3.90
2018-11-21T19:18:30.521Z,3.90
2018-11-21T19:20:59.712Z,4.00
2018-11-21T19:23:29.148Z,3.90
2018-11-21T19:25:58.256Z,3.90
2018-11-21T19:28:27.769Z,3.90
2018-11-21T19:30:56.909Z,3.90
2018-11-21T19:33:26.201Z,3.90
2018-11-21T19:35:55.356Z,3.90
2018-11-21T19:38:24.482Z,3.90
2018-11-21T19:40:53.607Z,3.90
2018-11-21T19:43:22.751Z,3.90
2018-11-21T19:45:51.963Z,3.90
2018-11-21T19:48:21.480Z,3.90
2018-11-21T19:50:50.633Z,3.90
2018-11-21T19:53:19.856Z,4.00
2018-11-21T19:55:48.962Z,3.90
2018-11-21T19:58:18.161Z,3.90
2018-11-21T20:00:47.269Z,3.90
2018-11-21T20:03:16.464Z,4.00
2018-11-21T20:05:45.735Z,4.00
2018-11-21T20:08:16.967Z,4.00
2018-11-21T20:10:46.340Z,3.90
2018-11-21T20:13:15.475Z,3.90
2018-11-21T20:15:44.788Z,4.00
2018-11-21T20:18:14.724Z,3.90
2018-11-21T20:20:43.911Z,3.90
2018-11-21T20:23:12.863Z,3.90
2018-11-21T20:25:41.844Z,3.90
2018-11-21T20:28:13.304Z,3.90
2018-11-21T20:30:42.521Z,3.80
2018-11-21T20:33:11.551Z,3.90
2018-11-21T20:35:40.495Z,3.80
2018-11-21T20:38:09.702Z,3.80
2018-11-21T20:40:39.364Z,3.70
2018-11-21T20:43:08.245Z,3.70
2018-11-21T20:45:37.410Z,3.80
2018-11-21T20:48:06.370Z,3.80
2018-11-21T20:50:35.287Z,3.80
2018-11-21T20:53:04.394Z,3.80
2018-11-21T20:55:34.009Z,3.70
2018-11-21T20:58:03.075Z,3.70
2018-11-21T21:00:32.422Z,3.70
2018-11-21T21:03:01.720Z,3.80
2018-11-21T21:05:31.119Z,3.80
2018-11-21T21:08:00.054Z,3.80
2018-11-21T21:10:30.774Z,3.70
2018-11-21T21:12:59.481Z,3.70
2018-11-21T21:15:28.784Z,3.70
2018-11-21T21:17:57.597Z,3.70
2018-11-21T21:20:27.690Z,3.70
2018-11-21T21:22:58.796Z,3.80
2018-11-21T21:25:29.814Z,3.70
2018-11-21T21:27:59.090Z,3.70
2018-11-21T21:30:33.019Z,3.70
2018-11-21T21:33:02.816Z,3.70
2018-11-21T21:35:32.931Z,3.70
2018-11-21T21:38:01.861Z,3.60
2018-11-21T21:40:31.931Z,3.70
2018-11-21T21:43:01.135Z,3.60
2018-11-21T21:45:31.674Z,3.70
2018-11-21T21:48:00.710Z,3.70
2018-11-21T21:50:31.355Z,3.70
2018-11-21T21:53:00.360Z,3.70
2018-11-21T21:55:30.222Z,3.70
2018-11-21T21:57:59.749Z,3.70
2018-11-21T22:00:29.352Z,3.70
2018-11-21T22:02:59.337Z,3.70
2018-11-21T22:05:28.559Z,3.70
2018-11-21T22:07:57.525Z,3.70
2018-11-21T22:10:26.484Z,3.70
2018-11-21T22:12:55.586Z,3.70
2018-11-21T22:15:32.411Z,3.70
2018-11-21T22:18:12.585Z,3.70
2018-11-21T22:20:42.201Z,3.70
2018-11-21T22:23:11.508Z,3.70
2018-11-21T22:25:40.439Z,3.70
2018-11-21T22:28:09.405Z,3.70
2018-11-21T22:30:38.661Z,3.60
2018-11-21T22:33:07.615Z,3.70
2018-11-21T22:35:38.066Z,3.70
2018-11-21T22:38:06.903Z,3.70
2018-11-21T22:40:35.755Z,3.70
2018-11-21T22:43:05.216Z,3.70
2018-11-21T22:45:35.363Z,3.70
2018-11-21T22:48:05.415Z,3.70
2018-11-21T22:50:35.214Z,3.70
2018-11-21T22:53:04.317Z,3.70
2018-11-21T22:55:33.696Z,3.70
2018-11-21T22:58:02.640Z,3.70
2018-11-21T23:00:51.344Z,3.70
2018-11-21T23:03:20.827Z,3.70
2018-11-21T23:05:49.688Z,3.70
2018-11-21T23:08:18.840Z,3.70
2018-11-21T23:10:48.136Z,3.70
2018-11-21T23:13:17.043Z,3.70
2018-11-21T23:15:46.950Z,2.80
2018-11-21T23:18:15.812Z,3.70
2018-11-21T23:20:44.683Z,3.70
2018-11-21T23:23:13.618Z,3.70
2018-11-21T23:25:42.471Z,3.70
2018-11-21T23:28:12.356Z,3.60
2018-11-21T23:30:41.278Z,3.60
2018-11-21T23:33:10.176Z,3.60
2018-11-21T23:35:39.076Z,3.60
2018-11-21T23:38:08.030Z,3.60
2018-11-21T23:40:37.948Z,3.60
2018-11-21T23:43:06.834Z,3.60
2018-11-21T23:45:35.703Z,3.60
2018-11-21T23:48:04.641Z,3.60
2018-11-21T23:50:33.634Z,3.60
2018-11-21T23:53:02.482Z,3.60
2018-11-21T23:55:31.571Z,3.60
2018-11-21T23:58:00.331Z,3.60
